createdAt,value
2017-05-30T00:02:44.656Z,7.70
2017-05-30T00:05:12.914Z,6.88
2017-05-30T00:07:41.149Z,6.62
2017-05-30T00:10:09.392Z,7.20
2017-05-30T00:12:37.672Z,7.62
2017-05-30T00:15:05.908Z,6.94
2017-05-30T00:17:34.154Z,6.92
2017-05-30T00:20:02.382Z,7.56
2017-05-30T00:22:30.639Z,8.46
2017-05-30T00:24:58.889Z,7.90
2017-05-30T00:27:43.832Z,9.00
2017-05-30T00:30:12.084Z,8.18
2017-05-30T00:32:40.333Z,7.12
2017-05-30T00:35:09.155Z,7.38
2017-05-30T00:37:37.445Z,7.78
2017-05-30T00:40:05.715Z,7.98
2017-05-30T00:45:28.043Z,8.54
2017-05-30T00:48:16.966Z,7.84
2017-05-30T00:50:45.917Z,8.50
2017-05-30T00:53:14.164Z,7.88
2017-05-30T00:55:42.419Z,8.30
2017-05-30T00:58:10.661Z,9.34
2017-05-30T01:00:38.905Z,8.52
2017-05-30T01:03:07.142Z,7.68
2017-05-30T01:05:35.387Z,7.66
2017-05-30T01:08:03.819Z,7.40
2017-05-30T01:10:32.133Z,7.68
2017-05-30T01:13:00.407Z,7.92
2017-05-30T01:15:28.673Z,7.54
2017-05-30T01:17:56.924Z,6.82
2017-05-30T01:20:25.156Z,6.70
2017-05-30T01:22:53.611Z,6.98
2017-05-30T01:25:21.868Z,6.78
2017-05-30T01:27:50.123Z,6.10
2017-05-30T01:33:11.828Z,6.78
2017-05-30T01:35:40.073Z,6.00
2017-05-30T01:38:08.346Z,6.08
2017-05-30T01:40:36.592Z,6.50
2017-05-30T01:43:04.847Z,6.65
2017-05-30T01:45:33.092Z,6.40
2017-05-30T01:48:01.392Z,6.90
2017-05-30T01:50:29.629Z,6.50
2017-05-30T01:52:57.896Z,6.50
2017-05-30T01:55:26.148Z,6.92
2017-05-30T01:57:54.397Z,7.30
2017-05-30T02:00:22.696Z,6.36
2017-05-30T02:02:50.939Z,6.70
2017-05-30T02:05:19.555Z,7.42
2017-05-30T02:07:47.798Z,7.00
2017-05-30T02:10:16.040Z,6.72
2017-05-30T02:12:44.272Z,6.40
2017-05-30T02:15:12.520Z,7.56
2017-05-30T02:17:40.774Z,7.12
2017-05-30T02:20:09.043Z,6.72
2017-05-30T02:22:37.288Z,7.12
2017-05-30T02:25:05.541Z,6.44
2017-05-30T02:27:33.776Z,6.60
2017-05-30T02:30:02.024Z,6.62
2017-05-30T02:32:30.271Z,6.18
2017-05-30T02:34:58.556Z,5.64
2017-05-30T02:37:26.789Z,6.28
2017-05-30T02:39:55.092Z,6.07
2017-05-30T02:42:23.405Z,5.96
2017-05-30T02:44:51.671Z,6.48
2017-05-30T02:47:19.893Z,6.40
2017-05-30T02:49:48.140Z,6.60
2017-05-30T02:52:16.381Z,6.50
2017-05-30T02:54:44.672Z,6.96
2017-05-30T02:57:12.971Z,6.44
2017-05-30T02:59:41.211Z,6.30
2017-05-30T03:02:09.475Z,6.73
2017-05-30T03:04:37.707Z,6.44
2017-05-30T03:07:06.028Z,6.00
2017-05-30T03:09:34.289Z,7.06
2017-05-30T03:12:02.541Z,7.00
2017-05-30T03:14:30.785Z,7.00
2017-05-30T03:19:53.100Z,7.06
2017-05-30T03:22:21.338Z,6.94
2017-05-30T03:24:49.593Z,6.03
2017-05-30T03:27:17.840Z,7.08
2017-05-30T03:32:40.544Z,7.32
2017-05-30T03:35:12.722Z,7.08
2017-05-30T03:37:41.062Z,7.30
2017-05-30T03:40:09.345Z,6.60
2017-05-30T03:42:37.582Z,7.76
2017-05-30T03:45:05.836Z,7.37
2017-05-30T03:50:28.383Z,7.10
2017-05-30T03:52:56.647Z,7.27
2017-05-30T03:55:24.890Z,8.00
2017-05-30T04:00:46.891Z,7.32
2017-05-30T04:03:15.128Z,7.90
2017-05-30T04:05:43.369Z,7.78
2017-05-30T04:08:11.626Z,7.60
2017-05-30T04:10:39.857Z,7.16
2017-05-30T04:13:08.111Z,7.82
2017-05-30T04:15:36.944Z,8.48
2017-05-30T04:18:05.190Z,7.94
2017-05-30T04:20:33.440Z,8.88
2017-05-30T04:23:01.726Z,8.90
2017-05-30T04:25:29.970Z,8.06
2017-05-30T04:28:21.332Z,7.72
2017-05-30T04:30:49.580Z,8.02
2017-05-30T04:33:17.825Z,7.98
2017-05-30T04:35:46.077Z,7.90
2017-05-30T04:38:14.325Z,7.38
2017-05-30T04:40:42.555Z,8.24
2017-05-30T04:43:10.795Z,8.20
2017-05-30T04:45:39.033Z,8.26
2017-05-30T04:48:07.272Z,7.94
2017-05-30T04:50:35.592Z,7.76
2017-05-30T04:53:03.856Z,8.00
2017-05-30T04:55:38.322Z,8.08
2017-05-30T04:58:06.556Z,7.52
2017-05-30T05:00:34.803Z,7.72
2017-05-30T05:03:03.032Z,8.52
2017-05-30T05:05:31.288Z,7.82
2017-05-30T05:07:59.556Z,7.90
2017-05-30T05:10:27.803Z,8.70
2017-05-30T05:12:56.114Z,8.98
2017-05-30T05:15:24.371Z,8.00
2017-05-30T05:17:52.613Z,8.46
2017-05-30T05:20:20.860Z,8.06
2017-05-30T05:22:49.109Z,8.08
2017-05-30T05:25:17.451Z,8.44
2017-05-30T05:27:45.710Z,8.62
2017-05-30T05:30:13.995Z,8.46
2017-05-30T05:32:42.256Z,8.88
2017-05-30T05:35:10.853Z,8.34
2017-05-30T05:37:39.166Z,8.54
2017-05-30T05:40:07.405Z,9.24
2017-05-30T05:42:35.673Z,9.22
2017-05-30T05:45:03.949Z,8.88
2017-05-30T05:47:32.192Z,8.74
2017-05-30T05:50:00.469Z,8.12
2017-05-30T05:52:28.715Z,8.62
2017-05-30T05:54:56.949Z,7.52
2017-05-30T05:57:25.239Z,8.00
2017-05-30T05:59:53.477Z,8.70
2017-05-30T06:02:31.569Z,7.58
2017-05-30T06:04:59.804Z,6.98
2017-05-30T06:07:28.070Z,7.62
2017-05-30T06:09:56.320Z,8.14
2017-05-30T06:12:24.569Z,7.20
2017-05-30T06:14:52.813Z,7.96
2017-05-30T06:17:21.075Z,7.60
2017-05-30T06:19:49.351Z,7.28
2017-05-30T06:22:17.680Z,6.80
2017-05-30T06:24:45.927Z,7.58
2017-05-30T06:27:14.167Z,6.90
2017-05-30T06:29:42.415Z,7.13
2017-05-30T06:32:10.650Z,7.32
2017-05-30T06:34:38.885Z,7.20
2017-05-30T06:37:07.117Z,8.44
2017-05-30T06:39:35.392Z,8.90
2017-05-30T06:42:03.629Z,6.94
2017-05-30T06:44:31.867Z,8.08
2017-05-30T06:47:00.120Z,8.28
2017-05-30T06:49:28.352Z,8.26
2017-05-30T06:51:56.616Z,8.50
2017-05-30T06:54:24.867Z,8.40
2017-05-30T06:56:53.112Z,8.10
2017-05-30T06:59:21.343Z,7.76
2017-05-30T07:01:49.600Z,8.70
2017-05-30T07:04:17.873Z,8.00
2017-05-30T07:06:46.140Z,8.30
2017-05-30T07:09:14.389Z,8.34
2017-05-30T07:11:42.647Z,8.64
2017-05-30T07:14:10.879Z,8.74
2017-05-30T07:16:39.138Z,7.56
2017-05-30T07:19:07.380Z,8.58
2017-05-30T07:21:35.658Z,7.90
2017-05-30T07:24:03.908Z,7.50
2017-05-30T07:26:32.149Z,8.14
2017-05-30T07:29:00.379Z,7.56
2017-05-30T07:31:28.630Z,7.72
2017-05-30T07:33:56.883Z,8.04
2017-05-30T07:36:25.128Z,7.44
2017-05-30T07:38:53.396Z,8.26
2017-05-30T07:44:15.758Z,7.04
2017-05-30T07:46:43.997Z,7.02
2017-05-30T07:49:12.253Z,7.42
2017-05-30T07:51:40.501Z,7.38
2017-05-30T07:54:08.755Z,7.90
2017-05-30T07:56:36.994Z,7.48
2017-05-30T07:59:05.232Z,7.54
2017-05-30T08:01:33.476Z,6.93
2017-05-30T08:06:56.149Z,7.62
2017-05-30T08:09:24.438Z,7.38
2017-05-30T08:11:52.719Z,8.52
2017-05-30T08:14:20.968Z,8.18
2017-05-30T08:16:49.212Z,8.72
2017-05-30T08:19:17.444Z,7.14
2017-05-30T08:21:45.686Z,7.08
2017-05-30T08:24:13.920Z,6.84
2017-05-30T08:26:42.168Z,7.68
2017-05-30T08:29:10.419Z,7.88
2017-05-30T08:31:38.679Z,7.06
2017-05-30T08:34:06.919Z,7.02
2017-05-30T08:36:35.187Z,7.66
2017-05-30T08:39:03.413Z,7.80
2017-05-30T08:41:31.801Z,7.80
2017-05-30T08:44:00.031Z,8.56
2017-05-30T08:46:28.280Z,8.52
2017-05-30T08:48:56.515Z,8.58
2017-05-30T08:51:24.829Z,7.90
2017-05-30T08:53:53.108Z,7.56
2017-05-30T08:56:21.340Z,7.16
2017-05-30T08:58:49.593Z,7.50
2017-05-30T09:01:17.853Z,7.45
2017-05-30T09:03:46.113Z,7.98
2017-05-30T09:06:14.355Z,8.62
2017-05-30T09:08:42.603Z,7.42
2017-05-30T09:11:10.840Z,8.32
2017-05-30T09:13:39.085Z,7.74
2017-05-30T09:16:07.410Z,8.08
2017-05-30T09:18:35.658Z,7.62
2017-05-30T09:21:03.902Z,7.12
2017-05-30T09:23:32.163Z,7.82
2017-05-30T09:26:00.459Z,7.60
2017-05-30T09:28:28.667Z,8.10
2017-05-30T09:30:56.926Z,10.16
2017-05-30T09:33:25.196Z,7.22
2017-05-30T09:35:53.427Z,6.78
2017-05-30T09:38:21.659Z,7.04
2017-05-30T09:40:50.011Z,7.30
2017-05-30T09:43:18.273Z,7.44
2017-05-30T09:45:46.512Z,8.28
2017-05-30T09:48:14.759Z,7.72
2017-05-30T09:50:43.026Z,6.03
2017-05-30T09:53:11.280Z,5.53
2017-05-30T09:55:39.552Z,6.10
2017-05-30T09:58:07.812Z,5.96
2017-05-30T10:00:36.048Z,6.84
2017-05-30T10:03:04.286Z,6.58
2017-05-30T10:05:32.537Z,6.08
2017-05-30T10:08:00.825Z,5.60
2017-05-30T10:10:29.106Z,6.12
2017-05-30T10:12:57.369Z,5.13
2017-05-30T10:15:25.624Z,5.80
2017-05-30T10:17:53.906Z,6.04
2017-05-30T10:20:22.140Z,5.08
2017-05-30T10:22:50.420Z,4.90
2017-05-30T10:25:18.653Z,4.70
2017-05-30T10:27:46.884Z,5.32
2017-05-30T10:30:15.139Z,5.66
2017-05-30T10:32:43.394Z,5.72
2017-05-30T10:38:05.496Z,5.24
2017-05-30T10:40:33.788Z,5.12
2017-05-30T10:43:02.043Z,5.74
2017-05-30T10:45:30.285Z,5.70
2017-05-30T10:47:58.574Z,5.62
2017-05-30T10:50:26.836Z,5.57
2017-05-30T10:52:55.088Z,6.22
2017-05-30T10:55:23.337Z,6.28
2017-05-30T10:57:51.592Z,7.06
2017-05-30T11:00:19.832Z,6.94
2017-05-30T11:02:48.080Z,6.18
2017-05-30T11:05:33.480Z,6.14
2017-05-30T11:08:14.152Z,5.96
2017-05-30T11:10:49.795Z,6.38
2017-05-30T11:13:18.116Z,6.50
2017-05-30T11:15:46.327Z,7.52
2017-05-30T11:18:14.555Z,7.12
2017-05-30T11:20:42.808Z,7.08
2017-05-30T11:23:11.040Z,7.14
2017-05-30T11:25:39.290Z,6.62
2017-05-30T11:28:07.526Z,7.20
2017-05-30T11:30:35.781Z,7.40
2017-05-30T11:33:04.031Z,7.60
2017-05-30T11:35:32.283Z,6.62
2017-05-30T11:38:00.644Z,6.22
2017-05-30T11:40:28.899Z,10.34
2017-05-30T11:42:57.152Z,5.84
2017-05-30T11:45:25.395Z,6.52
2017-05-30T11:47:53.630Z,6.08
2017-05-30T11:50:22.892Z,5.82
2017-05-30T11:52:51.152Z,5.90
2017-05-30T11:55:19.396Z,6.36
2017-05-30T11:57:47.647Z,6.32
2017-05-30T12:00:15.900Z,5.82
2017-05-30T12:02:44.146Z,5.90
2017-05-30T12:05:12.759Z,5.94
2017-05-30T12:07:41.160Z,7.48
2017-05-30T12:10:09.386Z,6.08
2017-05-30T12:12:37.644Z,5.18
2017-05-30T12:15:05.900Z,5.08
2017-05-30T12:17:34.135Z,4.90
2017-05-30T12:20:02.391Z,4.66
2017-05-30T12:22:30.642Z,4.52
2017-05-30T12:24:58.871Z,4.32
2017-05-30T12:27:40.249Z,4.54
2017-05-30T12:30:08.480Z,4.32
2017-05-30T12:32:37.972Z,4.88
2017-05-30T12:35:06.477Z,5.18
2017-05-30T12:37:34.777Z,4.48
2017-05-30T12:40:03.011Z,4.72
2017-05-30T12:42:31.257Z,4.64
2017-05-30T12:45:21.364Z,4.18
2017-05-30T12:47:49.607Z,4.50
2017-05-30T12:50:17.852Z,4.38
2017-05-30T12:52:46.091Z,4.62
2017-05-30T12:55:14.342Z,4.90
2017-05-30T12:57:42.629Z,4.40
2017-05-30T13:00:10.880Z,3.62
2017-05-30T13:02:39.110Z,4.34
2017-05-30T13:05:08.055Z,4.80
2017-05-30T13:07:36.309Z,4.74
2017-05-30T13:10:04.563Z,4.28
2017-05-30T13:12:32.796Z,4.90
2017-05-30T13:15:01.045Z,3.92
2017-05-30T13:17:29.310Z,4.16
2017-05-30T13:19:57.588Z,4.10
2017-05-30T13:25:32.200Z,4.78
2017-05-30T13:28:00.436Z,4.00
2017-05-30T13:30:28.684Z,4.64
2017-05-30T13:32:56.940Z,5.20
2017-05-30T13:35:25.272Z,4.46
2017-05-30T13:37:53.544Z,5.04
2017-05-30T13:40:21.782Z,5.56
2017-05-30T13:42:50.038Z,5.90
2017-05-30T13:45:18.298Z,6.48
2017-05-30T13:47:46.553Z,6.10
2017-05-30T13:50:14.948Z,6.76
2017-05-30T13:52:43.193Z,6.32
2017-05-30T13:55:11.441Z,6.02
2017-05-30T13:57:39.675Z,6.04
2017-05-30T14:00:07.912Z,6.14
2017-05-30T14:02:36.160Z,6.90
2017-05-30T14:10:53.344Z,6.64
2017-05-30T14:13:21.609Z,6.18
2017-05-30T14:15:49.856Z,6.90
2017-05-30T14:18:35.092Z,6.72
2017-05-30T14:21:03.339Z,6.46
2017-05-30T14:23:31.596Z,6.50
2017-05-30T14:25:59.832Z,6.12
2017-05-30T14:34:16.103Z,5.72
2017-05-30T14:36:44.355Z,6.08
2017-05-30T14:39:12.613Z,6.38
2017-05-30T14:41:40.848Z,5.74
2017-05-30T14:44:09.233Z,6.72
2017-05-30T14:46:37.476Z,5.92
2017-05-30T14:49:05.723Z,6.32
2017-05-30T14:51:33.967Z,6.28
2017-05-30T14:54:02.208Z,6.12
2017-05-30T14:56:30.467Z,6.20
2017-05-30T14:58:58.697Z,6.42
2017-05-30T15:01:26.942Z,5.90
2017-05-30T15:03:55.172Z,5.14
2017-05-30T15:06:23.427Z,6.26
2017-05-30T15:08:54.692Z,6.84
2017-05-30T15:11:23.047Z,6.78
2017-05-30T15:13:51.272Z,6.94
2017-05-30T15:16:19.546Z,6.84
2017-05-30T15:18:53.978Z,7.08
2017-05-30T15:21:45.793Z,7.38
2017-05-30T15:24:14.049Z,7.26
2017-05-30T15:26:42.303Z,6.98
2017-05-30T15:29:10.556Z,7.88
2017-05-30T15:31:38.804Z,8.60
2017-05-30T15:37:01.496Z,8.78
2017-05-30T15:39:29.721Z,8.16
2017-05-30T15:41:58.012Z,9.00
2017-05-30T15:44:26.255Z,7.06
2017-05-30T15:49:48.704Z,8.56
2017-05-30T15:52:16.962Z,8.34
2017-05-30T15:54:45.188Z,8.74
2017-05-30T15:57:13.432Z,8.40
2017-05-30T15:59:41.682Z,9.06
2017-05-30T16:02:09.944Z,8.60
2017-05-30T16:04:38.220Z,9.10
2017-05-30T16:09:59.884Z,8.80
2017-05-30T16:12:28.141Z,8.84
2017-05-30T16:14:56.391Z,9.02
2017-05-30T16:17:24.637Z,9.02
2017-05-30T16:19:52.897Z,9.74
2017-05-30T16:22:21.163Z,9.20
2017-05-30T16:24:49.559Z,9.52
2017-05-30T16:27:17.798Z,9.14
2017-05-30T16:29:46.053Z,9.24
2017-05-30T16:32:14.284Z,9.12
2017-05-30T16:37:36.804Z,7.98
2017-05-30T16:40:05.052Z,7.92
2017-05-30T16:42:33.301Z,8.34
2017-05-30T16:45:01.532Z,8.04
2017-05-30T16:47:29.777Z,9.18
2017-05-30T16:52:51.574Z,8.48
2017-05-30T16:58:13.708Z,7.72
2017-05-30T17:00:41.965Z,8.32
2017-05-30T17:03:10.201Z,8.36
2017-05-30T17:05:38.440Z,7.84
2017-05-30T17:08:06.689Z,7.00
2017-05-30T17:10:34.968Z,6.56
2017-05-30T17:13:03.211Z,6.74
2017-05-30T17:15:31.448Z,6.68
2017-05-30T17:17:59.690Z,6.10
2017-05-30T17:20:27.927Z,6.50
2017-05-30T17:22:55.419Z,6.06
2017-05-30T17:25:23.677Z,5.96
2017-05-30T17:27:51.917Z,6.60
2017-05-30T17:30:20.175Z,5.50
2017-05-30T17:32:48.429Z,6.84
2017-05-30T17:35:16.689Z,5.02
2017-05-30T17:37:44.995Z,5.54
2017-05-30T17:40:13.226Z,5.10
2017-05-30T17:42:41.471Z,4.78
2017-05-30T17:45:09.708Z,4.66
2017-05-30T17:47:37.955Z,4.54
2017-05-30T17:50:06.191Z,4.90
2017-05-30T17:52:34.424Z,4.94
2017-05-30T17:55:02.666Z,5.02
2017-05-30T17:57:30.922Z,4.92
2017-05-30T17:59:59.252Z,4.54
2017-05-30T18:02:27.480Z,4.90
2017-05-30T18:04:55.740Z,5.06
2017-05-30T18:13:11.560Z,3.84
2017-05-30T18:15:47.270Z,4.34
2017-05-30T18:18:15.532Z,4.88
2017-05-30T18:20:43.804Z,4.56
2017-05-30T18:23:12.045Z,4.54
2017-05-30T18:25:46.899Z,4.92
2017-05-30T18:28:15.144Z,4.66
2017-05-30T18:30:57.780Z,5.00
2017-05-30T18:33:26.053Z,4.92
2017-05-30T18:41:41.961Z,5.66
2017-05-30T18:44:10.210Z,7.80
2017-05-30T18:46:38.501Z,4.82
2017-05-30T18:52:00.611Z,5.82
2017-05-30T18:54:28.857Z,5.40
2017-05-30T18:56:57.124Z,6.78
2017-05-30T18:59:25.370Z,5.22
2017-05-30T19:01:53.644Z,5.82
2017-05-30T19:04:21.924Z,6.46
2017-05-30T19:06:50.168Z,5.72
2017-05-30T19:09:18.405Z,6.06
2017-05-30T19:14:40.476Z,6.28
2017-05-30T19:17:08.722Z,6.22
2017-05-30T19:19:36.959Z,5.88
2017-05-30T19:22:05.205Z,6.12
2017-05-30T19:24:33.459Z,6.02
2017-05-30T19:27:01.704Z,5.96
2017-05-30T19:29:29.947Z,5.47
2017-05-30T19:31:58.190Z,5.80
2017-05-30T19:34:26.435Z,6.60
2017-05-30T19:37:00.505Z,6.48
2017-05-30T19:39:28.839Z,6.90
2017-05-30T19:41:57.103Z,6.78
2017-05-30T19:44:25.388Z,6.36
2017-05-30T19:46:53.656Z,6.48
2017-05-30T19:49:21.897Z,6.26
2017-05-30T19:51:50.140Z,5.98
2017-05-30T19:54:18.387Z,6.50
2017-05-30T19:56:46.681Z,7.36
2017-05-30T19:59:14.924Z,6.56
2017-05-30T20:01:43.177Z,7.20
2017-05-30T20:04:11.452Z,7.08
2017-05-30T20:06:39.714Z,7.34
2017-05-30T20:09:08.137Z,6.80
2017-05-30T20:11:36.373Z,6.73
2017-05-30T20:14:04.656Z,7.14
2017-05-30T20:16:32.897Z,7.14
2017-05-30T20:19:01.151Z,6.62
2017-05-30T20:21:29.399Z,6.92
2017-05-30T20:23:57.667Z,7.42
2017-05-30T20:26:25.930Z,6.92
2017-05-30T20:28:54.212Z,6.98
2017-05-30T20:31:22.465Z,7.38
2017-05-30T20:33:50.760Z,6.92
2017-05-30T20:36:19.007Z,6.38
2017-05-30T20:38:47.260Z,6.60
2017-05-30T20:41:15.495Z,7.04
2017-05-30T20:43:43.752Z,7.08
2017-05-30T20:46:12.004Z,7.00
2017-05-30T20:48:40.255Z,7.26
2017-05-30T20:51:08.496Z,7.82
2017-05-30T20:53:36.752Z,8.72
2017-05-30T20:56:04.992Z,7.68
2017-05-30T20:58:33.235Z,6.64
2017-05-30T21:01:01.530Z,7.14
2017-05-30T21:03:29.773Z,7.32
2017-05-30T21:05:58.030Z,6.72
2017-05-30T21:08:26.295Z,7.46
2017-05-30T21:10:54.595Z,6.94
2017-05-30T21:13:22.836Z,8.10
2017-05-30T21:15:51.084Z,6.90
2017-05-30T21:18:19.345Z,7.08
2017-05-30T21:20:47.699Z,8.18
2017-05-30T21:23:15.954Z,6.54
2017-05-30T21:25:44.219Z,6.92
2017-05-30T21:28:12.456Z,6.26
2017-05-30T21:30:40.691Z,6.64
2017-05-30T21:33:08.951Z,6.78
2017-05-30T21:35:37.200Z,6.52
2017-05-30T21:38:05.428Z,6.18
2017-05-30T21:40:33.680Z,7.04
2017-05-30T21:43:01.944Z,8.48
2017-05-30T21:45:30.265Z,7.62
2017-05-30T21:47:58.521Z,6.42
2017-05-30T21:50:26.764Z,6.70
2017-05-30T21:52:54.994Z,6.34
2017-05-30T21:55:23.268Z,6.18
2017-05-30T21:57:51.523Z,6.08
2017-05-30T22:00:19.919Z,6.96
2017-05-30T22:02:48.152Z,6.70
2017-05-30T22:05:24.977Z,6.06
2017-05-30T22:07:53.249Z,6.68
2017-05-30T22:10:21.505Z,6.28
2017-05-30T22:12:49.771Z,7.02
2017-05-30T22:15:18.010Z,6.30
2017-05-30T22:17:46.260Z,6.12
2017-05-30T22:20:14.506Z,6.60
2017-05-30T22:22:42.751Z,6.44
2017-05-30T22:25:10.990Z,6.42
2017-05-30T22:27:39.239Z,6.74
2017-05-30T22:30:07.527Z,7.54
2017-05-30T22:32:35.009Z,6.96
2017-05-30T22:35:03.258Z,7.94
2017-05-30T22:37:31.500Z,7.04
2017-05-30T22:39:59.738Z,8.34
2017-05-30T22:42:28.130Z,8.04
2017-05-30T22:44:56.376Z,8.02
2017-05-30T22:47:24.673Z,7.42
2017-05-30T22:49:52.915Z,7.48
2017-05-30T22:52:21.148Z,7.60
2017-05-30T22:54:49.478Z,7.90
2017-05-30T22:57:17.740Z,7.72
2017-05-30T22:59:53.863Z,7.24
2017-05-30T23:02:22.118Z,8.04
2017-05-30T23:04:50.376Z,7.00
2017-05-30T23:07:18.627Z,7.12
2017-05-30T23:09:46.891Z,7.52
2017-05-30T23:12:15.136Z,7.98
2017-05-30T23:14:43.388Z,6.82
2017-05-30T23:17:11.625Z,7.34
2017-05-30T23:19:39.876Z,7.30
2017-05-30T23:22:08.119Z,6.32
2017-05-30T23:24:36.368Z,6.56
2017-05-30T23:27:18.255Z,6.32
2017-05-30T23:29:46.528Z,7.44
2017-05-30T23:32:14.771Z,6.58
2017-05-30T23:34:43.020Z,8.12
2017-05-30T23:37:11.272Z,7.76
2017-05-30T23:39:39.517Z,7.54
2017-05-30T23:42:08.161Z,7.42
2017-05-30T23:44:36.407Z,6.92
2017-05-30T23:47:04.667Z,6.62
2017-05-30T23:52:26.586Z,7.52
2017-05-30T23:54:54.820Z,6.46
2017-05-30T23:57:23.079Z,7.34
2017-05-30T23:59:51.310Z,6.62
